Terminal Aerodrome Forecast
Issued by NWS

Home | Current Version | Previous Version | Text Only | Print | Product List | Glossary On
Versions: 1 2 3 4 5 6 7 8 9 10 11 12 13 14 15 16 17 18
000
FTUS46 KSEW 181722
TAFBLI
TAF
KBLI 181722Z 1818/1918 16012G20KT P6SM OVC014
     FM182100 17012KT P6SM BKN035 OVC060
     FM190800 17008KT P6SM SCT035 BKN060
     FM191200 17006KT P6SM OVC025=

USA.gov is the U.S. government's official web portal to all federal, state and local government web resources and services.